Taylor, Wisconsin
Current Conditions -  °F | °C
As of 1:15 PM on Saturday 20 Dec 2014 (Local Time) from KBCK Reporting Station
Haze Haze  
Wind Chill: 27°   Ceiling: 1300
Heat Index: 32°   Visibility: 5mi
Dew Point: 27°   Wind: 5mph
Humidity: 80%   Direction: 170°S
Pressure: 30.18"   Gusts: NA
Location:  44.32°N, 91.12°W
Report Text: KBCK 201915Z AUTO 17004KT 5SM HZ OVC013 00/M03 A3018 RMK AO2 T00001030
Loading
Personal Weather Stations






























Interactive Weather Map New forecast layout! Learn more

10-Day Weather Forecast

Advertisements
Track Severe Weather on mobile